Time;durP1;ratioP1;P1;durP2;ratioP2;P2;SDS_P1;SDS_P2;PMS_P1;PMS_P2;Temp;Humidity;BMP_temperature;BMP_pressure;BME280_temperature;BME280_humidity;BME280_pressure;Samples;Min_cycle;Max_cycle;Signal;HPM_P1;HPM_P2
2022/06/23 00:00:23;;;;;;;1.80;1.70;;;;;;;15.11;77.51;98898.08;1780596;78;21772;-70
2022/06/23 00:02:49;;;;;;;3.50;2.00;;;;;;;15.13;77.38;98910.68;1779757;80;20940;-70
2022/06/23 00:05:19;;;;;;;2.33;1.52;;;;;;;15.13;77.42;98907.20;1780526;80;20948;-70
2022/06/23 00:07:51;;;;;;;4.72;1.60;;;;;;;15.14;77.49;98907.52;1780546;80;20961;-70
2022/06/23 00:10:22;;;;;;;2.42;1.72;;;;;;;15.14;77.52;98908.84;1780936;80;21400;-70
2022/06/23 00:12:49;;;;;;;3.00;1.77;;;;;;;15.14;77.52;98902.20;1779755;79;21794;-70
2022/06/23 00:15:29;;;;;;;3.52;2.00;;;;;;;15.15;77.61;98906.50;1778387;80;20859;-70
2022/06/23 00:18:03;;;;;;;4.00;1.80;;;;;;;15.15;77.68;98907.83;1780650;78;21459;-70
2022/06/23 00:20:54;;;;;;;2.85;1.67;;;;;;;15.15;77.71;98906.02;1780788;80;21057;-70
2022/06/23 00:23:31;;;;;;;3.65;1.60;;;;;;;15.17;77.77;98901.84;1780589;80;21043;-70
2022/06/23 00:26:09;;;;;;;2.87;1.80;;;;;;;15.18;77.81;98900.32;1780825;80;21887;-70
2022/06/23 00:28:52;;;;;;;3.25;1.85;;;;;;;15.21;77.84;98890.31;1780579;80;20936;-70
2022/06/23 00:31:35;;;;;;;3.05;1.70;;;;;;;15.21;77.95;98889.80;1780853;80;21427;-70
2022/06/23 00:34:05;;;;;;;3.92;1.95;;;;;;;15.19;78.05;98882.52;1804393;78;21047;-70
2022/06/23 00:36:43;;;;;;;2.95;1.60;;;;;;;15.16;78.24;98879.74;1814452;78;21036;-70
2022/06/23 00:39:40;;;;;;;3.60;1.90;;;;;;;15.15;78.52;98873.25;1821495;78;21967;-70
2022/06/23 00:42:25;;;;;;;2.55;1.90;;;;;;;15.14;78.60;98866.30;1821412;78;20937;-70
2022/06/23 00:45:09;;;;;;;2.40;1.55;;;;;;;15.14;78.77;98859.64;1796808;78;20984;-70
2022/06/23 00:47:47;;;;;;;2.30;1.90;;;;;;;15.16;78.88;98873.60;1781029;80;20957;-70
2022/06/23 00:50:49;;;;;;;4.35;2.22;;;;;;;15.15;78.96;98860.81;1779313;80;20973;-70
2022/06/23 00:53:36;;;;;;;3.05;2.10;;;;;;;15.17;79.06;98868.09;1776489;80;22091;-70
2022/06/23 00:56:29;;;;;;;2.95;1.87;;;;;;;15.19;79.13;98865.23;1742007;80;21059;-70
2022/06/23 00:59:13;;;;;;;4.45;2.40;;;;;;;15.18;79.21;98863.59;1781180;80;20948;-70
2022/06/23 01:01:54;;;;;;;2.15;1.82;;;;;;;15.18;79.21;98857.77;1780712;80;21142;-70
2022/06/23 01:04:32;;;;;;;4.35;2.10;;;;;;;15.20;79.21;98861.56;1770831;80;21035;-70
2022/06/23 01:07:38;;;;;;;5.87;1.87;;;;;;;15.23;79.25;98862.51;1777030;78;21984;-70
2022/06/23 01:10:34;;;;;;;5.00;2.10;;;;;;;15.23;79.25;98867.83;1731183;82;21032;-70
2022/06/23 01:13:21;;;;;;;4.05;2.10;;;;;;;15.23;79.30;98859.84;1745923;82;21454;-70
2022/06/23 01:15:56;;;;;;;3.75;1.95;;;;;;;15.23;79.27;98874.48;1714683;82;20972;-70
2022/06/23 01:18:28;;;;;;;4.15;2.08;;;;;;;15.26;79.24;98875.45;1714802;83;21015;-70
2022/06/23 01:21:21;;;;;;;2.77;2.30;;;;;;;15.28;79.25;98876.59;1714564;83;22479;-70
2022/06/23 01:24:27;;;;;;;2.70;2.23;;;;;;;15.25;79.19;98879.13;1715925;83;20979;-70
2022/06/23 01:27:47;;;;;;;2.50;2.30;;;;;;;15.23;79.25;98878.47;1735092;82;20974;-70
2022/06/23 01:30:13;;;;;;;3.87;2.55;;;;;;;15.20;79.31;98884.17;1774556;80;20993;-70
2022/06/23 01:32:58;;;;;;;4.67;2.62;;;;;;;15.19;79.36;98894.49;1774453;81;21463;-70
2022/06/23 01:35:36;;;;;;;4.42;2.50;;;;;;;15.18;79.35;98896.33;1774484;80;21911;-70
2022/06/23 01:38:11;;;;;;;4.53;2.50;;;;;;;15.21;79.34;98907.60;1774394;80;20997;-70
2022/06/23 01:40:55;;;;;;;3.67;2.58;;;;;;;15.20;79.37;98908.11;1751741;78;20942;-70
2022/06/23 01:43:34;;;;;;;4.00;2.52;;;;;;;15.20;79.36;98915.27;1780538;80;21029;-70
2022/06/23 01:46:23;;;;;;;3.65;2.62;;;;;;;15.21;79.33;98923.05;1744596;82;21490;-70
2022/06/23 01:49:18;;;;;;;3.95;2.70;;;;;;;15.23;79.20;98930.33;1749666;82;22246;-70
2022/06/23 01:51:56;;;;;;;4.55;2.80;;;;;;;15.25;79.04;98931.00;1750857;80;21019;-70
2022/06/23 01:54:26;;;;;;;5.47;2.72;;;;;;;15.24;78.96;98940.47;1756782;80;20995;-70
2022/06/23 01:57:21;;;;;;;5.85;2.67;;;;;;;15.25;78.91;98936.31;1780662;80;20980;-70
2022/06/23 02:00:17;;;;;;;3.65;2.70;;;;;;;15.27;78.79;98942.27;1817512;78;20936;-70
2022/06/23 02:03:19;;;;;;;4.85;3.00;;;;;;;15.30;78.80;98942.39;1821723;78;21859;-70
2022/06/23 02:05:58;;;;;;;5.97;2.60;;;;;;;15.29;78.69;98934.91;1820850;78;20960;-70
2022/06/23 02:08:52;;;;;;;3.75;2.58;;;;;;;15.30;78.59;98929.09;1821538;78;20999;-70
2022/06/23 02:11:48;;;;;;;3.87;2.70;;;;;;;15.33;78.45;98936.17;1820545;78;20953;-70
2022/06/23 02:14:43;;;;;;;3.95;2.50;;;;;;;15.34;78.37;98933.84;1817296;78;21419;-70
2022/06/23 02:17:47;;;;;;;3.55;2.47;;;;;;;15.37;78.21;98945.45;1749841;82;21842;-70
2022/06/23 02:20:56;;;;;;;6.50;2.45;;;;;;;15.39;78.14;98941.27;1749911;82;22385;-70
2022/06/23 02:23:34;;;;;;;4.85;2.87;;;;;;;15.42;78.15;98937.72;1750083;82;21035;-70
2022/06/23 02:26:16;;;;;;;5.92;2.40;;;;;;;15.44;78.01;98941.52;1749758;82;21221;-70
2022/06/23 02:29:15;;;;;;;4.03;2.08;;;;;;;15.45;77.97;98940.02;1749375;82;21518;-70
2022/06/23 02:32:10;;;;;;;3.80;2.22;;;;;;;15.46;77.79;98940.84;1753497;78;21841;-70
2022/06/23 02:34:45;;;;;;;6.58;2.40;;;;;;;15.48;77.79;98943.31;1780624;80;20929;-70
2022/06/23 02:37:57;;;;;;;4.12;2.37;;;;;;;15.51;77.79;98946.41;1781047;80;21067;-71
2022/06/23 02:40:38;;;;;;;6.72;2.62;;;;;;;15.52;77.71;98937.92;1780519;80;21079;-70
2022/06/23 02:43:19;;;;;;;4.90;2.33;;;;;;;15.50;77.65;98928.80;1780690;80;21479;-70
2022/06/23 02:46:41;;;;;;;3.92;2.55;;;;;;;15.52;77.64;98932.59;1780581;80;21915;-70
2022/06/23 02:49:36;;;;;;;3.22;2.22;;;;;;;15.50;77.60;98931.46;1788525;78;21395;-70
2022/06/23 02:52:27;;;;;;;4.30;2.67;;;;;;;15.52;77.59;98928.09;1821613;78;20973;-70
2022/06/23 02:55:31;;;;;;;6.12;2.40;;;;;;;15.50;77.53;98933.30;1816336;78;21213;-69
2022/06/23 02:58:14;;;;;;;3.25;2.60;;;;;;;15.50;77.56;98930.64;1812788;79;20944;-69
2022/06/23 03:00:59;;;;;;;4.00;2.62;;;;;;;15.49;77.58;98928.48;1812745;79;22563;-69
2022/06/23 03:03:46;;;;;;;5.70;2.60;;;;;;;15.48;77.62;98937.99;1812627;79;20933;-70
2022/06/23 03:06:24;;;;;;;4.80;2.62;;;;;;;15.46;77.73;98935.02;1799928;79;21053;-69
2022/06/23 03:09:04;;;;;;;3.12;2.62;;;;;;;15.46;77.90;98932.86;1764255;81;21021;-69
2022/06/23 03:11:53;;;;;;;4.28;2.77;;;;;;;15.45;78.02;98922.73;1766232;81;21040;-69
2022/06/23 03:14:58;;;;;;;6.30;3.10;;;;;;;15.45;78.16;98940.53;1766293;79;21898;-69
2022/06/23 03:17:39;;;;;;;4.58;2.67;;;;;;;15.43;78.37;98940.69;1767427;80;21465;-69
2022/06/23 03:20:21;;;;;;;4.53;2.90;;;;;;;15.42;78.66;98951.02;1767748;80;20978;-69
2022/06/23 03:23:11;;;;;;;6.12;2.90;;;;;;;15.42;78.84;98950.20;1768472;79;21072;-69
2022/06/23 03:25:51;;;;;;;4.00;2.95;;;;;;;15.41;79.11;98955.20;1751211;80;21455;-69
2022/06/23 03:28:23;;;;;;;5.12;2.80;;;;;;;15.38;79.39;98952.42;1777793;80;22066;-69
2022/06/23 03:31:08;;;;;;;3.75;2.92;;;;;;;15.38;79.57;98943.61;1764305;80;20941;-69
2022/06/23 03:33:43;;;;;;;5.97;2.67;;;;;;;15.35;79.85;98955.47;1777506;80;20940;-69
2022/06/23 03:36:24;;;;;;;3.45;2.60;;;;;;;15.33;80.05;98964.11;1777856;80;21086;-69
2022/06/23 03:41:53;;;;;;;3.75;3.02;;;;;;;15.29;80.60;98975.33;1768526;79;21716;-70
2022/06/23 03:44:27;;;;;;;4.00;2.60;;;;;;;15.27;80.81;98981.34;1764931;81;20954;-69
2022/06/23 03:47:01;;;;;;;3.25;2.80;;;;;;;15.25;81.08;98974.88;1771749;80;20996;-70
2022/06/23 03:49:43;;;;;;;3.85;2.70;;;;;;;15.24;81.23;98979.03;1777554;80;21393;-69
2022/06/23 03:52:17;;;;;;;5.90;2.80;;;;;;;15.25;81.41;98979.35;1778005;80;21414;-70
2022/06/23 03:54:54;;;;;;;3.30;2.58;;;;;;;15.23;81.64;98977.39;1777907;80;22439;-69
2022/06/23 03:57:32;;;;;;;3.20;2.90;;;;;;;15.21;81.81;98961.62;1767808;78;21024;-69
2022/06/23 04:00:22;;;;;;;4.60;2.80;;;;;;;15.19;81.99;98955.66;1821502;78;20953;-69
2022/06/23 04:03:02;;;;;;;2.98;2.50;;;;;;;15.18;82.17;98957.50;1821393;78;20937;-69
2022/06/23 04:05:46;;;;;;;3.70;2.40;;;;;;;15.18;82.30;98954.84;1821586;78;20944;-69
2022/06/23 04:08:13;;;;;;;3.22;2.92;;;;;;;15.19;82.46;98958.33;1818619;78;22400;-69
2022/06/23 04:10:42;;;;;;;3.37;2.95;;;;;;;15.18;82.60;98951.36;1821420;78;20932;-69
2022/06/23 04:13:17;;;;;;;3.75;3.20;;;;;;;15.19;82.75;98960.98;1821671;78;20933;-70
2022/06/23 04:15:43;;;;;;;3.65;3.10;;;;;;;15.20;82.81;98965.30;1780481;78;20976;-69
2022/06/23 04:18:18;;;;;;;4.08;3.10;;;;;;;15.20;82.97;98959.15;1780660;80;20996;-69
2022/06/23 04:20:56;;;;;;;3.35;3.05;;;;;;;15.22;83.08;98969.91;1780545;80;21919;-70
2022/06/23 04:23:32;;;;;;;4.17;3.08;;;;;;;15.23;83.15;98964.91;1780451;80;21024;-70
2022/06/23 04:26:14;;;;;;;3.98;3.10;;;;;;;15.27;83.25;98962.73;1780064;80;20977;-70
2022/06/23 04:28:48;;;;;;;5.62;3.20;;;;;;;15.29;83.36;98969.50;1780809;80;21024;-70
2022/06/23 04:31:28;;;;;;;4.33;3.12;;;;;;;15.34;83.44;98969.75;1790442;78;20992;-70
2022/06/23 04:33:54;;;;;;;3.62;2.87;;;;;;;15.38;83.50;98978.20;1821804;78;21846;-70
2022/06/23 04:36:25;;;;;;;4.15;2.98;;;;;;;15.43;83.53;98983.27;1821433;78;21008;-70
2022/06/23 04:39:02;;;;;;;3.27;2.70;;;;;;;15.48;83.57;98988.04;1821410;78;20961;-70
2022/06/23 04:41:41;;;;;;;3.00;2.70;;;;;;;15.54;83.63;98992.63;1821478;78;20984;-70
2022/06/23 04:44:15;;;;;;;4.58;2.60;;;;;;;15.60;83.68;98993.70;1811668;78;20945;-70
2022/06/23 04:46:46;;;;;;;5.15;2.92;;;;;;;15.65;83.72;98991.34;1800483;78;21807;-70
2022/06/23 04:49:22;;;;;;;3.25;2.60;;;;;;;15.68;83.71;98997.10;1807510;78;20969;-70
2022/06/23 04:52:15;;;;;;;3.40;2.62;;;;;;;15.74;83.73;99003.02;1821540;78;20949;-70
2022/06/23 04:55:04;;;;;;;2.98;2.67;;;;;;;15.79;83.65;99003.77;1793087;78;21487;-70
2022/06/23 04:57:48;;;;;;;3.62;2.67;;;;;;;15.86;83.55;99007.34;1780845;79;21087;-70
2022/06/23 05:00:24;;;;;;;4.55;2.60;;;;;;;15.92;83.49;99012.39;1780795;80;21905;-70
2022/06/23 05:02:55;;;;;;;3.58;2.50;;;;;;;15.96;83.28;99018.50;1780464;80;20945;-70
2022/06/23 05:05:35;;;;;;;3.02;2.60;;;;;;;16.02;83.18;99032.40;1779958;78;20989;-70
2022/06/23 05:08:06;;;;;;;2.70;2.20;;;;;;;16.11;83.14;99030.92;1756904;80;21012;-70
2022/06/23 05:10:48;;;;;;;2.47;2.20;;;;;;;16.19;83.04;99028.13;1780841;80;21534;-70
2022/06/23 05:13:19;;;;;;;2.98;2.10;;;;;;;16.29;83.00;99030.79;1780573;80;22486;-70
2022/06/23 05:15:50;;;;;;;2.65;2.00;;;;;;;16.40;82.81;99037.44;1780621;80;21526;-70
2022/06/23 05:18:27;;;;;;;3.35;2.40;;;;;;;16.48;82.36;99046.64;1780699;80;21058;-70
2022/06/23 05:21:04;;;;;;;4.17;2.08;;;;;;;16.55;82.23;99050.20;1756566;80;21005;-70
2022/06/23 05:23:44;;;;;;;4.00;2.12;;;;;;;16.66;81.88;99058.17;1812219;78;20976;-70
2022/06/23 05:26:18;;;;;;;2.42;1.87;;;;;;;16.74;81.71;99061.25;1821922;78;21842;-70
2022/06/23 05:28:44;;;;;;;2.27;1.80;;;;;;;16.81;81.25;99068.80;1819596;78;21451;-70
2022/06/23 05:31:18;;;;;;;2.52;2.00;;;;;;;16.83;80.71;99066.75;1821990;78;21399;-70
2022/06/23 05:33:49;;;;;;;2.62;2.00;;;;;;;16.86;80.62;99070.36;1821713;78;21023;-70
2022/06/23 05:36:24;;;;;;;1.87;1.70;;;;;;;16.89;80.30;99076.66;1821902;78;21455;-70
2022/06/23 05:38:59;;;;;;;2.42;2.12;;;;;;;16.86;79.73;99077.02;1815856;78;21784;-70
2022/06/23 05:41:34;;;;;;;2.05;1.77;;;;;;;16.85;79.62;99078.87;1774598;80;21386;-70
2022/06/23 05:44:04;;;;;;;2.08;1.87;;;;;;;16.87;79.47;99081.33;1774660;80;21550;-70
2022/06/23 05:46:31;;;;;;;2.12;1.77;;;;;;;16.88;79.32;99078.98;1777227;80;21007;-70
2022/06/23 05:49:01;;;;;;;3.08;1.82;;;;;;;16.88;79.13;99079.80;1780731;80;20984;-70
2022/06/23 05:51:48;;;;;;;2.30;1.92;;;;;;;16.85;78.87;99074.05;1780756;80;21915;-70
2022/06/23 05:54:34;;;;;;;2.67;2.12;;;;;;;16.83;78.80;99069.42;1780671;80;21031;-70
2022/06/23 05:57:08;;;;;;;1.98;1.75;;;;;;;16.83;78.74;99072.09;1771089;79;20953;-70
2022/06/23 06:00:04;;;;;;;2.42;1.72;;;;;;;16.87;78.75;99068.00;1812639;79;21036;-70
2022/06/23 06:03:11;;;;;;;2.30;1.70;;;;;;;16.92;78.78;99060.77;1812614;79;20977;-70
2022/06/23 06:05:41;;;;;;;2.92;2.00;;;;;;;17.01;78.82;99067.09;1812591;79;22687;-70
2022/06/23 06:08:29;;;;;;;3.25;2.00;;;;;;;17.10;78.63;99057.09;1810118;79;20972;-70
2022/06/23 06:10:57;;;;;;;3.25;1.90;;;;;;;17.13;78.45;99064.19;1800168;79;20985;-70
2022/06/23 06:13:28;;;;;;;2.27;1.80;;;;;;;17.22;78.44;99065.37;1796385;79;20985;-70
2022/06/23 06:15:57;;;;;;;2.87;1.80;;;;;;;17.28;77.90;99066.75;1766314;80;20977;-70
2022/06/23 06:18:36;;;;;;;2.67;1.70;;;;;;;17.33;77.68;99074.16;1767136;81;22533;-70
2022/06/23 06:21:06;;;;;;;2.70;2.05;;;;;;;17.37;77.50;99074.06;1767448;81;20949;-70
2022/06/23 06:24:02;;;;;;;3.62;1.55;;;;;;;17.41;77.14;99082.00;1767852;81;21012;-70
2022/06/23 06:26:42;;;;;;;2.80;1.70;;;;;;;17.45;76.97;99089.41;1767489;81;21200;-70
2022/06/23 06:29:14;;;;;;;2.52;1.60;;;;;;;17.43;76.36;99099.47;1767836;81;20933;-70
2022/06/23 06:31:44;;;;;;;1.72;1.62;;;;;;;17.39;76.11;99109.41;1767709;79;21822;-70
2022/06/23 06:34:22;;;;;;;2.12;1.62;;;;;;;17.31;76.08;99103.71;1766365;80;21008;-70
2022/06/23 06:36:51;;;;;;;2.98;1.70;;;;;;;17.28;76.20;99106.78;1766208;81;20938;-70
2022/06/23 06:39:32;;;;;;;2.40;1.60;;;;;;;17.22;76.28;99110.22;1766129;80;20962;-70
2022/06/23 06:42:09;;;;;;;2.52;1.47;;;;;;;17.19;76.44;99120.47;1766430;81;20958;-69
2022/06/23 06:44:41;;;;;;;2.70;1.47;;;;;;;17.17;76.54;99125.47;1735207;81;21841;-73
2022/06/23 06:47:18;;;;;;;2.02;1.35;;;;;;;17.11;76.49;99128.93;1774779;79;21393;-75
2022/06/23 06:49:46;;;;;;;2.10;1.72;;;;;;;17.08;76.68;99137.81;1777465;80;21078;-75
2022/06/23 06:52:12;;;;;;;1.98;1.65;;;;;;;17.02;76.77;99138.60;1776461;80;21055;-74
2022/06/23 06:54:53;;;;;;;1.70;1.60;;;;;;;17.00;77.09;99146.80;1776470;80;21023;-74
2022/06/23 06:57:30;;;;;;;1.70;1.60;;;;;;;17.01;77.37;99150.30;1778189;80;22566;-75
2022/06/23 07:00:08;;;;;;;2.33;1.60;;;;;;;17.03;77.67;99160.26;1779372;80;21043;-74
2022/06/23 07:02:49;;;;;;;1.82;1.70;;;;;;;17.00;77.69;99162.81;1779840;80;21000;-75
2022/06/23 07:05:42;;;;;;;2.50;1.82;;;;;;;16.99;77.97;99165.16;1779454;78;21015;-75
2022/06/23 07:08:19;;;;;;;2.57;1.63;;;;;;;16.98;78.02;99178.16;1779730;80;21445;-76
2022/06/23 07:10:54;;;;;;;2.25;1.50;;;;;;;16.92;78.17;99177.61;1779997;80;22422;-77
2022/06/23 07:13:58;;;;;;;2.55;1.50;;;;;;;16.91;78.07;99186.63;1779724;80;21040;-79
2022/06/23 07:16:51;;;;;;;1.80;1.40;;;;;;;16.94;78.11;99184.91;1779551;80;21023;-73
2022/06/23 07:19:41;;;;;;;1.92;1.47;;;;;;;17.01;78.13;99190.31;1779497;80;21462;-78
2022/06/23 07:22:22;;;;;;;1.40;1.30;;;;;;;17.07;78.21;99193.52;1779601;80;21442;-77
2022/06/23 07:25:00;;;;;;;1.42;1.20;;;;;;;17.10;77.84;99194.49;1779517;80;21820;-75
2022/06/23 07:27:40;;;;;;;1.95;1.25;;;;;;;17.09;77.61;99191.00;1779677;80;20996;-76
2022/06/23 07:30:15;;;;;;;1.70;1.35;;;;;;;17.12;77.69;99171.93;1779323;80;21027;-76
2022/06/23 07:33:06;;;;;;;2.45;1.52;;;;;;;17.16;77.41;99165.69;1757281;80;21075;-72
2022/06/23 07:35:49;;;;;;;2.52;1.80;;;;;;;17.15;77.13;99176.05;1779713;80;21067;-77
2022/06/23 07:38:35;;;;;;;2.45;1.80;;;;;;;17.15;77.11;99171.53;1779105;80;22469;-74
2022/06/23 07:41:38;;;;;;;2.00;1.77;;;;;;;17.13;77.15;99170.91;1754844;80;21515;-73
2022/06/23 07:44:15;;;;;;;4.10;1.87;;;;;;;17.06;76.83;99159.86;1779397;80;20980;-75
2022/06/23 07:46:43;;;;;;;2.55;1.80;;;;;;;17.13;77.44;99162.08;1779268;80;21036;-78
2022/06/23 07:49:10;;;;;;;2.42;1.77;;;;;;;17.26;77.87;99161.34;1779456;80;21027;-76
2022/06/23 07:51:37;;;;;;;2.52;1.90;;;;;;;17.39;78.20;99156.13;1779368;80;21764;-75
2022/06/23 07:54:04;;;;;;;1.95;1.80;;;;;;;17.51;78.36;99142.53;1779481;80;21027;-75
2022/06/23 07:56:32;;;;;;;3.55;2.00;;;;;;;17.57;78.17;99105.72;1757305;79;21064;-75
2022/06/23 07:59:04;;;;;;;2.55;2.20;;;;;;;17.61;78.02;99091.45;1778364;80;20946;-72
2022/06/23 08:01:37;;;;;;;2.72;2.00;;;;;;;17.63;77.93;99147.63;1777907;80;21009;-72
2022/06/23 08:04:31;;;;;;;3.33;2.20;;;;;;;17.71;78.31;99141.34;1778107;80;22440;-72
2022/06/23 08:07:00;;;;;;;4.92;2.00;;;;;;;17.81;78.40;99125.77;1779286;80;20954;-72
2022/06/23 08:09:37;;;;;;;2.50;2.30;;;;;;;17.94;78.18;99100.44;1779192;80;20998;-72
2022/06/23 08:17:46;;;;;;;2.42;2.22;;;;;;;18.03;76.37;99183.41;1753429;80;21939;-72
2022/06/23 08:20:12;;;;;;;2.35;2.17;;;;;;;18.13;76.55;99195.05;1758122;81;21045;-72
2022/06/23 08:22:39;;;;;;;2.47;2.12;;;;;;;18.31;76.70;99219.39;1757922;81;20960;-72
2022/06/23 08:25:06;;;;;;;3.33;1.90;;;;;;;18.44;76.28;99217.81;1757863;81;21502;-73
2022/06/23 08:27:32;;;;;;;2.42;1.82;;;;;;;18.54;76.09;99220.93;1758053;81;21003;-72
2022/06/23 08:30:07;;;;;;;2.30;1.95;;;;;;;18.62;75.01;99226.07;1754536;81;21813;-72
2022/06/23 08:32:34;;;;;;;2.62;1.70;;;;;;;18.62;74.14;99222.06;1720263;82;21016;-72
2022/06/23 08:35:08;;;;;;;2.00;1.70;;;;;;;18.64;73.48;99212.53;1752061;82;21058;-72
2022/06/23 08:37:43;;;;;;;2.95;1.65;;;;;;;18.59;72.77;99227.31;1751996;82;20997;-73
2022/06/23 08:40:20;;;;;;;1.77;1.62;;;;;;;18.55;72.05;99225.25;1752135;82;20973;-72
2022/06/23 08:43:01;;;;;;;2.40;1.85;;;;;;;18.55;71.75;99220.73;1744731;82;21792;-72
2022/06/23 08:45:52;;;;;;;2.00;1.60;;;;;;;18.58;71.43;99220.83;1751588;82;21419;-73
2022/06/23 08:48:46;;;;;;;1.67;1.50;;;;;;;18.64;71.28;99229.91;1752069;82;21044;-72
2022/06/23 08:51:43;;;;;;;3.08;1.80;;;;;;;18.67;71.37;99254.42;1756852;81;21250;-72
2022/06/23 08:54:24;;;;;;;2.02;1.50;;;;;;;18.63;70.99;99265.19;1735935;81;20961;-73
2022/06/23 08:57:08;;;;;;;2.00;1.70;;;;;;;18.54;70.98;99268.55;1755585;79;21774;-72
2022/06/23 08:59:52;;;;;;;2.20;1.90;;;;;;;18.47;71.09;99258.84;1754692;81;21506;-72
2022/06/23 09:02:41;;;;;;;3.98;1.70;;;;;;;18.44;71.45;99263.27;1753923;81;20936;-72
2022/06/23 09:05:36;;;;;;;1.98;1.50;;;;;;;18.47;71.87;99246.30;1754801;81;21122;-72
2022/06/23 09:08:19;;;;;;;1.77;1.57;;;;;;;18.44;70.95;99240.54;1754797;81;21030;-72
2022/06/23 09:11:10;;;;;;;1.67;1.50;;;;;;;18.37;70.95;99237.83;1754920;81;21819;-72
2022/06/23 09:14:11;;;;;;;1.62;1.47;;;;;;;18.36;71.10;99238.86;1754966;81;21392;-72
2022/06/23 09:17:18;;;;;;;1.40;1.30;;;;;;;18.42;71.27;99240.72;1754742;81;21443;-72
2022/06/23 09:19:58;;;;;;;1.45;1.35;;;;;;;18.53;71.33;99235.33;1754739;81;20980;-73
2022/06/23 09:22:54;;;;;;;1.50;1.40;;;;;;;18.60;71.26;99232.97;1754893;81;21506;-72
2022/06/23 09:25:46;;;;;;;2.15;1.50;;;;;;;18.68;71.28;99240.53;1754500;81;21020;-72
2022/06/23 09:28:48;;;;;;;1.98;1.60;;;;;;;18.73;70.83;99249.62;1754661;81;21028;-72
2022/06/23 09:31:52;;;;;;;1.90;1.57;;;;;;;18.74;70.82;99253.94;1755107;81;20996;-72
2022/06/23 09:34:52;;;;;;;4.20;1.82;;;;;;;18.78;70.84;99271.73;1754881;81;20964;-72
2022/06/23 09:38:08;;;;;;;1.60;1.50;;;;;;;18.91;71.22;99285.65;1754837;81;20957;-72
2022/06/23 09:41:22;;;;;;;1.72;1.62;;;;;;;19.07;71.64;99285.28;1751476;81;23278;-72
2022/06/23 09:44:26;;;;;;;1.67;1.57;;;;;;;19.21;71.55;99294.18;1717329;83;20937;-72
2022/06/23 09:47:09;;;;;;;2.00;1.70;;;;;;;19.21;71.11;99301.70;1718279;82;21075;-72
2022/06/23 09:49:57;;;;;;;2.00;1.70;;;;;;;19.12;70.26;99303.73;1741238;81;21015;-72
2022/06/23 09:52:58;;;;;;;2.58;1.57;;;;;;;19.03;70.07;99295.58;1754820;81;21027;-72
2022/06/23 09:56:09;;;;;;;2.37;1.52;;;;;;;19.02;70.59;99293.94;1754768;81;21790;-72
2022/06/23 09:59:07;;;;;;;1.82;1.40;;;;;;;19.03;70.45;99290.75;1754631;80;21047;-72
2022/06/23 10:01:58;;;;;;;4.90;1.60;;;;;;;19.18;70.64;99297.24;1722826;81;21009;-72
2022/06/23 10:05:08;;;;;;;1.65;1.55;;;;;;;19.38;70.55;99294.07;1754774;81;21463;-72
2022/06/23 10:07:52;;;;;;;1.87;1.60;;;;;;;19.63;70.52;99293.81;1754795;81;20956;-72
2022/06/23 10:10:59;;;;;;;1.95;1.67;;;;;;;20.00;69.98;99288.31;1754700;81;22362;-72
2022/06/23 10:13:44;;;;;;;1.30;1.20;;;;;;;20.34;69.39;99297.08;1754017;81;20949;-73
2022/06/23 10:16:23;;;;;;;2.37;1.30;;;;;;;20.68;68.23;99305.36;1754590;81;21392;-72
2022/06/23 10:19:29;;;;;;;3.08;1.35;;;;;;;20.95;66.96;99300.69;1742545;81;21015;-72
2022/06/23 10:22:20;;;;;;;3.17;1.42;;;;;;;21.19;65.58;99303.11;1724487;83;21107;-73
2022/06/23 10:25:15;;;;;;;2.05;1.27;;;;;;;21.51;65.51;99313.34;1724920;83;22509;-72
2022/06/23 10:28:10;;;;;;;3.47;1.40;;;;;;;21.71;63.06;99317.22;1726555;81;20960;-72
2022/06/23 10:31:19;;;;;;;1.40;1.20;;;;;;;21.84;63.08;99329.73;1748368;82;20953;-74
2022/06/23 10:34:22;;;;;;;1.40;1.30;;;;;;;21.96;61.62;99334.17;1739053;82;21012;-74
2022/06/23 10:37:16;;;;;;;1.75;1.40;;;;;;;22.02;61.80;99343.23;1730615;80;21484;-74
2022/06/23 10:40:39;;;;;;;2.60;1.45;;;;;;;22.12;61.44;99347.61;1748661;82;22356;-74
2022/06/23 10:43:20;;;;;;;1.67;1.10;;;;;;;22.16;61.11;99345.28;1748573;82;21419;-74
2022/06/23 10:45:52;;;;;;;1.20;1.12;;;;;;;22.14;61.07;99356.80;1748558;81;21008;-73
2022/06/23 10:48:34;;;;;;;1.80;1.50;;;;;;;22.00;60.59;99351.52;1717069;82;21466;-74
2022/06/23 10:51:42;;;;;;;2.10;1.27;;;;;;;21.87;60.84;99356.17;1752880;81;20944;-74
2022/06/23 10:54:31;;;;;;;1.72;1.30;;;;;;;21.69;61.28;99363.13;1754714;81;22580;-74
2022/06/23 10:57:15;;;;;;;1.52;1.30;;;;;;;21.54;61.86;99362.64;1752165;81;20953;-74
2022/06/23 10:59:53;;;;;;;2.67;1.30;;;;;;;21.33;61.79;99364.33;1789119;80;20963;-74
2022/06/23 11:02:43;;;;;;;1.80;1.50;;;;;;;21.18;62.45;99366.44;1788597;78;21012;-74
2022/06/23 11:05:40;;;;;;;1.60;1.40;;;;;;;21.07;63.00;99364.74;1710905;82;20954;-74
2022/06/23 11:08:47;;;;;;;4.15;1.70;;;;;;;20.99;63.34;99365.50;1740356;82;22459;-74
2022/06/23 11:11:39;;;;;;;1.82;1.60;;;;;;;20.89;63.74;99371.33;1740424;82;21005;-74
2022/06/23 11:14:29;;;;;;;2.77;2.00;;;;;;;20.88;64.11;99375.05;1740035;82;21005;-74
2022/06/23 11:17:25;;;;;;;2.22;1.82;;;;;;;20.86;64.09;99374.45;1740084;82;21033;-74
2022/06/23 11:20:17;;;;;;;1.67;1.57;;;;;;;20.87;63.99;99370.72;1745662;80;21516;-74
2022/06/23 11:22:55;;;;;;;2.22;1.90;;;;;;;20.83;63.46;99370.82;1748968;82;21911;-74
2022/06/23 11:25:45;;;;;;;4.85;1.82;;;;;;;20.76;63.56;99364.16;1744677;82;20966;-74
2022/06/23 11:28:42;;;;;;;2.80;1.67;;;;;;;20.82;63.71;99365.98;1747776;82;21543;-74
2022/06/23 11:31:52;;;;;;;2.92;1.30;;;;;;;20.88;63.61;99367.52;1748759;82;20962;-73
2022/06/23 11:34:51;;;;;;;3.35;1.50;;;;;;;20.97;62.89;99379.14;1748874;82;20987;-73
2022/06/23 11:37:55;;;;;;;1.90;1.50;;;;;;;21.15;62.96;99381.95;1773893;80;21909;-74
2022/06/23 11:40:33;;;;;;;1.40;1.30;;;;;;;21.42;62.72;99381.81;1785748;79;20929;-73
2022/06/23 11:43:17;;;;;;;1.67;1.30;;;;;;;21.54;61.64;99394.05;1785541;79;20948;-74
2022/06/23 11:46:27;;;;;;;2.05;1.50;;;;;;;21.47;61.19;99388.72;1785680;80;21487;-74
2022/06/23 11:49:15;;;;;;;1.67;1.40;;;;;;;21.40;61.35;99391.44;1785590;80;20992;-74
2022/06/23 11:52:20;;;;;;;1.70;1.40;;;;;;;21.30;61.46;99395.11;1782453;80;21805;-74
2022/06/23 11:55:27;;;;;;;1.62;1.50;;;;;;;21.36;61.55;99401.50;1744825;80;21124;-74
2022/06/23 11:58:26;;;;;;;2.10;1.52;;;;;;;21.37;60.86;99401.28;1741526;81;21459;-74
2022/06/23 12:01:13;;;;;;;1.50;1.37;;;;;;;21.36;60.63;99405.52;1774298;80;21028;-73
2022/06/23 12:04:03;;;;;;;2.77;1.30;;;;;;;21.36;60.25;99401.50;1774547;80;20955;-73
2022/06/23 12:06:46;;;;;;;1.57;1.45;;;;;;;21.48;60.46;99410.51;1774686;80;21427;-74
2022/06/23 12:09:28;;;;;;;2.33;1.35;;;;;;;21.89;61.27;99411.36;1774484;80;20958;-73
2022/06/23 12:11:56;;;;;;;1.92;1.37;;;;;;;22.36;58.92;99402.92;1749393;80;20970;-74
2022/06/23 12:14:23;;;;;;;2.02;1.20;;;;;;;22.65;58.14;99408.94;1750764;80;21076;-74
2022/06/23 12:17:30;;;;;;;2.08;1.40;;;;;;;22.86;56.75;99409.03;1774522;80;21432;-74
2022/06/23 12:20:36;;;;;;;1.82;1.00;;;;;;;22.92;56.55;99411.37;1775972;80;21895;-74
2022/06/23 12:23:42;;;;;;;1.55;1.20;;;;;;;23.07;57.70;99414.52;1780523;79;20990;-74
2022/06/23 12:26:20;;;;;;;3.77;1.10;;;;;;;23.27;55.10;99413.73;1780620;79;20950;-74
2022/06/23 12:29:18;;;;;;;1.87;1.17;;;;;;;23.14;54.76;99424.13;1780674;78;21435;-75
2022/06/23 12:32:02;;;;;;;1.10;1.00;;;;;;;23.02;55.02;99419.73;1780929;80;21039;-74
2022/06/23 12:34:52;;;;;;;2.67;1.17;;;;;;;22.86;55.34;99415.77;1780184;80;22477;-74
2022/06/23 12:37:27;;;;;;;1.60;1.20;;;;;;;22.60;55.86;99418.22;1780718;80;20933;-74
2022/06/23 12:40:12;;;;;;;1.57;1.05;;;;;;;22.46;56.64;99420.20;1764156;80;20980;-74
2022/06/23 12:42:49;;;;;;;2.02;1.15;;;;;;;22.55;57.19;99416.18;1780580;80;20944;-74
2022/06/23 12:45:43;;;;;;;1.57;0.93;;;;;;;22.64;57.29;99416.71;1776909;78;21056;-74
2022/06/23 12:48:41;;;;;;;3.22;1.07;;;;;;;22.65;56.90;99423.73;1774728;80;22435;-74
2022/06/23 12:51:31;;;;;;;1.20;1.10;;;;;;;22.61;57.67;99427.11;1774256;80;20989;-74
2022/06/23 12:54:37;;;;;;;1.05;0.90;;;;;;;22.82;57.56;99428.84;1749727;82;20948;-74
2022/06/23 12:57:28;;;;;;;2.15;1.00;;;;;;;23.22;56.66;99431.61;1726640;82;21021;-74
2022/06/23 13:00:08;;;;;;;0.80;0.80;;;;;;;23.56;55.64;99436.87;1727916;81;21430;-74
2022/06/23 13:02:51;;;;;;;0.93;0.90;;;;;;;23.66;55.28;99438.52;1817178;78;22261;-74